AAL610 KLAS-KFLL
Flight info
| Callsign | AAL610 |
|---|---|
| Flight time | 4h 0m |
| Altitude | 33000 |
| Route | NIITZ4 SSKEE INW CME UNNOS/N0445F350 GECKE JETDE JCT SAT EATIT MULLT LEV Y290 DOWRY TEEKY4 |
| Aircraft | B738/M-SDE2E3FGHIRWXY/LB1 |
Departure
| Time | 2026-05-04 14:02 |
|---|---|
| Airport | Harry Reid International Airport (KLAS) |
Arrival
| Time | 2026-05-04 18:03 |
|---|---|
| Airport | Fort Lauderdale Hollywood International Airport (KFLL) |
| Time | Latitude | Longitude | Altitude | Speed | Heading |
|---|---|---|---|---|---|
| 2026-05-04 13:56 | 36.07643 | -115.12454 | 2036 ft | 0 kts | 270° |
| 2026-05-04 14:01 | 36.07642 | -115.12545 | 2041 ft | 39 kts | 268° |
| 2026-05-04 14:01 | 36.07605 | -115.14372 | 2118 ft | 166 kts | 261° |
| 2026-05-04 14:02 | 36.07453 | -115.15861 | 2690 ft | 183 kts | 257° |
| 2026-05-04 14:02 | 36.07387 | -115.17572 | 3147 ft | 212 kts | 267° |
| 2026-05-04 14:02 | 36.07394 | -115.19476 | 3670 ft | 230 kts | 268° |
| 2026-05-04 14:02 | 36.07402 | -115.21450 | 4398 ft | 238 kts | 268° |
| 2026-05-04 14:03 | 36.07287 | -115.23500 | 5037 ft | 242 kts | 256° |
| 2026-05-04 14:03 | 36.06575 | -115.25362 | 5655 ft | 243 kts | 227° |
| 2026-05-04 14:03 | 36.05217 | -115.26675 | 6073 ft | 258 kts | 204° |
| 2026-05-04 14:03 | 36.03510 | -115.27491 | 6588 ft | 267 kts | 199° |
| 2026-05-04 14:04 | 35.99958 | -115.28662 | 7786 ft | 265 kts | 175° |
| 2026-05-04 14:04 | 35.98187 | -115.28038 | 8317 ft | 269 kts | 154° |
| 2026-05-04 14:04 | 35.96683 | -115.26678 | 8984 ft | 275 kts | 141° |
| 2026-05-04 14:05 | 35.93829 | -115.23494 | 10350 ft | 282 kts | 141° |
| 2026-05-04 14:05 | 35.92306 | -115.21813 | 10514 ft | 304 kts | 141° |
| 2026-05-04 14:05 | 35.90834 | -115.19806 | 10644 ft | 330 kts | 125° |
| 2026-05-04 14:06 | 35.89651 | -115.17295 | 10927 ft | 345 kts | 122° |
| 2026-05-04 14:06 | 35.88438 | -115.14704 | 11459 ft | 351 kts | 123° |
| 2026-05-04 14:06 | 35.87242 | -115.12065 | 12081 ft | 357 kts | 116° |
| 2026-05-04 14:06 | 35.86657 | -115.09106 | 12638 ft | 368 kts | 95° |
| 2026-05-04 14:07 | 35.86740 | -115.05927 | 13225 ft | 374 kts | 89° |
| 2026-05-04 14:07 | 35.86932 | -115.02705 | 13775 ft | 380 kts | 88° |
| 2026-05-04 14:07 | 35.87146 | -114.99450 | 14292 ft | 383 kts | 88° |
| 2026-05-04 14:07 | 35.87358 | -114.96145 | 14740 ft | 390 kts | 88° |
| 2026-05-04 14:08 | 35.87563 | -114.92785 | 15188 ft | 396 kts | 89° |
| 2026-05-04 14:08 | 35.87760 | -114.89381 | 15665 ft | 401 kts | 89° |
| 2026-05-04 14:08 | 35.87952 | -114.85931 | 16144 ft | 406 kts | 89° |
| 2026-05-04 14:08 | 35.88140 | -114.82476 | 16595 ft | 411 kts | 89° |
| 2026-05-04 14:09 | 35.88521 | -114.75342 | 17485 ft | 422 kts | 89° |
| 2026-05-04 14:09 | 35.88713 | -114.71711 | 17916 ft | 427 kts | 89° |
| 2026-05-04 14:10 | 35.89102 | -114.64325 | 18699 ft | 436 kts | 89° |
| 2026-05-04 14:10 | 35.89297 | -114.60577 | 19127 ft | 439 kts | 89° |
| 2026-05-04 14:10 | 35.89492 | -114.56807 | 19551 ft | 443 kts | 89° |
| 2026-05-04 14:10 | 35.89688 | -114.53002 | 19939 ft | 446 kts | 90° |
| 2026-05-04 14:11 | 35.89793 | -114.49215 | 20301 ft | 449 kts | 92° |
| 2026-05-04 14:11 | 35.89743 | -114.41471 | 21081 ft | 455 kts | 94° |
| 2026-05-04 14:11 | 35.89685 | -114.37551 | 21466 ft | 458 kts | 94° |
| 2026-05-04 14:12 | 35.89633 | -114.33610 | 21822 ft | 462 kts | 94° |
| 2026-05-04 14:12 | 35.89590 | -114.29628 | 22203 ft | 466 kts | 94° |
| 2026-05-04 14:12 | 35.89526 | -114.21586 | 22881 ft | 472 kts | 94° |
| 2026-05-04 14:13 | 35.89499 | -114.17581 | 23273 ft | 474 kts | 94° |
| 2026-05-04 14:13 | 35.89470 | -114.13499 | 23584 ft | 478 kts | 94° |
| 2026-05-04 14:13 | 35.89440 | -114.09394 | 23844 ft | 482 kts | 94° |
| 2026-05-04 14:13 | 35.89407 | -114.05240 | 24121 ft | 485 kts | 94° |
| 2026-05-04 14:14 | 35.89373 | -114.01069 | 24380 ft | 489 kts | 94° |
| 2026-05-04 14:14 | 35.89298 | -113.92622 | 24899 ft | 496 kts | 95° |
| 2026-05-04 14:14 | 35.89260 | -113.88352 | 25156 ft | 500 kts | 95° |
| 2026-05-04 14:15 | 35.89175 | -113.79787 | 25656 ft | 506 kts | 95° |
| 2026-05-04 14:15 | 35.89080 | -113.71053 | 26090 ft | 512 kts | 96° |
| 2026-05-04 14:16 | 35.88975 | -113.62234 | 26645 ft | 518 kts | 96° |
| 2026-05-04 14:16 | 35.88923 | -113.57781 | 26912 ft | 521 kts | 96° |
| 2026-05-04 14:17 | 35.88497 | -113.48846 | 27257 ft | 521 kts | 105° |
| 2026-05-04 14:17 | 35.87897 | -113.44437 | 27456 ft | 521 kts | 108° |
| 2026-05-04 14:17 | 35.86484 | -113.35712 | 27907 ft | 525 kts | 109° |
| 2026-05-04 14:18 | 35.85768 | -113.31284 | 28162 ft | 527 kts | 109° |
| 2026-05-04 14:18 | 35.84405 | -113.22364 | 28694 ft | 532 kts | 108° |
| 2026-05-04 14:19 | 35.83096 | -113.13353 | 29231 ft | 535 kts | 108° |
| 2026-05-04 14:19 | 35.82445 | -113.08834 | 29489 ft | 536 kts | 108° |
| 2026-05-04 14:19 | 35.81791 | -113.04308 | 29783 ft | 537 kts | 108° |
| 2026-05-04 14:19 | 35.81141 | -112.99846 | 30046 ft | 537 kts | 109° |
| 2026-05-04 14:20 | 35.80479 | -112.95317 | 30295 ft | 537 kts | 109° |
| 2026-05-04 14:20 | 35.79814 | -112.90794 | 30525 ft | 538 kts | 109° |
| 2026-05-04 14:20 | 35.79143 | -112.86262 | 30732 ft | 539 kts | 108° |
| 2026-05-04 14:21 | 35.77794 | -112.77179 | 31176 ft | 540 kts | 108° |
| 2026-05-04 14:21 | 35.77117 | -112.72633 | 31402 ft | 540 kts | 108° |
| 2026-05-04 14:21 | 35.76436 | -112.68078 | 31617 ft | 541 kts | 108° |
| 2026-05-04 14:21 | 35.75754 | -112.63526 | 31841 ft | 541 kts | 108° |
| 2026-05-04 14:22 | 35.75079 | -112.59028 | 32053 ft | 542 kts | 108° |
| 2026-05-04 14:22 | 35.74393 | -112.54469 | 32310 ft | 541 kts | 108° |
| 2026-05-04 14:22 | 35.73710 | -112.49934 | 32636 ft | 539 kts | 108° |
| 2026-05-04 14:22 | 35.73026 | -112.45401 | 32979 ft | 537 kts | 108° |
| 2026-05-04 14:23 | 35.71649 | -112.36356 | 33200 ft | 541 kts | 108° |
| 2026-05-04 14:23 | 35.70953 | -112.31804 | 33235 ft | 541 kts | 108° |
| 2026-05-04 14:24 | 35.69566 | -112.22738 | 33271 ft | 538 kts | 108° |
| 2026-05-04 14:24 | 35.68189 | -112.13782 | 33290 ft | 535 kts | 108° |
| 2026-05-04 14:25 | 35.66801 | -112.04816 | 33286 ft | 533 kts | 107° |
| 2026-05-04 14:25 | 35.64709 | -111.91392 | 33218 ft | 533 kts | 107° |
| 2026-05-04 14:26 | 35.62857 | -111.82661 | 33165 ft | 520 kts | 121° |
| 2026-05-04 14:26 | 35.59471 | -111.75100 | 33112 ft | 503 kts | 135° |
| 2026-05-04 14:27 | 35.55454 | -111.67983 | 33110 ft | 510 kts | 135° |
| 2026-05-04 14:27 | 35.51421 | -111.60778 | 33093 ft | 514 kts | 135° |
| 2026-05-04 14:28 | 35.47400 | -111.53495 | 33098 ft | 516 kts | 134° |
| 2026-05-04 14:28 | 35.43413 | -111.46252 | 33114 ft | 516 kts | 134° |
| 2026-05-04 14:29 | 35.35371 | -111.31707 | 33102 ft | 515 kts | 134° |
| 2026-05-04 14:30 | 35.31341 | -111.24451 | 33095 ft | 515 kts | 134° |
| 2026-05-04 14:31 | 35.25334 | -111.13659 | 33117 ft | 513 kts | 135° |
| 2026-05-04 14:32 | 35.17284 | -110.99249 | 33179 ft | 512 kts | 135° |
| 2026-05-04 14:32 | 35.13262 | -110.92071 | 33234 ft | 512 kts | 134° |
| 2026-05-04 14:33 | 35.09236 | -110.84898 | 33289 ft | 512 kts | 134° |
| 2026-05-04 14:33 | 35.05615 | -110.77378 | 33304 ft | 528 kts | 120° |
| 2026-05-04 14:34 | 35.03323 | -110.68763 | 33308 ft | 536 kts | 112° |
| 2026-05-04 14:34 | 35.01251 | -110.60020 | 33305 ft | 537 kts | 112° |
| 2026-05-04 14:35 | 34.99131 | -110.51288 | 33259 ft | 537 kts | 113° |
| 2026-05-04 14:35 | 34.96966 | -110.42634 | 33201 ft | 538 kts | 113° |
| 2026-05-04 14:36 | 34.94755 | -110.33921 | 33156 ft | 538 kts | 113° |
| 2026-05-04 14:36 | 34.92539 | -110.25212 | 33128 ft | 538 kts | 113° |
| 2026-05-04 14:37 | 34.90328 | -110.16534 | 33127 ft | 538 kts | 113° |
| 2026-05-04 14:37 | 34.88110 | -110.07849 | 33125 ft | 538 kts | 113° |
| 2026-05-04 14:38 | 34.85881 | -109.99149 | 33124 ft | 538 kts | 113° |
| 2026-05-04 14:38 | 34.83649 | -109.90467 | 33124 ft | 537 kts | 113° |
| 2026-05-04 14:39 | 34.81411 | -109.81790 | 33122 ft | 537 kts | 113° |
| 2026-05-04 14:39 | 34.79184 | -109.73186 | 33122 ft | 536 kts | 113° |
| 2026-05-04 14:40 | 34.75813 | -109.60216 | 33178 ft | 536 kts | 113° |
| 2026-05-04 14:40 | 34.73561 | -109.51587 | 33219 ft | 536 kts | 113° |
| 2026-05-04 14:41 | 34.71303 | -109.42962 | 33262 ft | 535 kts | 113° |
| 2026-05-04 14:42 | 34.66788 | -109.25797 | 33270 ft | 535 kts | 113° |
| 2026-05-04 14:42 | 34.64510 | -109.17182 | 33236 ft | 536 kts | 113° |
| 2026-05-04 14:43 | 34.62226 | -109.08570 | 33190 ft | 536 kts | 113° |
| 2026-05-04 14:43 | 34.59954 | -109.00025 | 33139 ft | 536 kts | 113° |
| 2026-05-04 14:44 | 34.57656 | -108.91418 | 33111 ft | 536 kts | 113° |
| 2026-05-04 14:44 | 34.55350 | -108.82804 | 33108 ft | 537 kts | 113° |
| 2026-05-04 14:45 | 34.53039 | -108.74197 | 33113 ft | 537 kts | 113° |
| 2026-05-04 14:45 | 34.50736 | -108.65649 | 33119 ft | 537 kts | 113° |
| 2026-05-04 14:46 | 34.48409 | -108.57041 | 33109 ft | 537 kts | 113° |
| 2026-05-04 14:46 | 34.46078 | -108.48442 | 33118 ft | 537 kts | 113° |
| 2026-05-04 14:47 | 34.43738 | -108.39838 | 33116 ft | 538 kts | 113° |
| 2026-05-04 14:47 | 34.41391 | -108.31235 | 33111 ft | 538 kts | 113° |
| 2026-05-04 14:48 | 34.39080 | -108.22792 | 33114 ft | 538 kts | 113° |
| 2026-05-04 14:48 | 34.36693 | -108.14095 | 33118 ft | 538 kts | 113° |
| 2026-05-04 14:49 | 34.34327 | -108.05503 | 33112 ft | 539 kts | 113° |
| 2026-05-04 14:49 | 34.31953 | -107.96909 | 33130 ft | 538 kts | 113° |
| 2026-05-04 14:50 | 34.29589 | -107.88377 | 33141 ft | 537 kts | 113° |
| 2026-05-04 14:50 | 34.27210 | -107.79816 | 33123 ft | 537 kts | 113° |
| 2026-05-04 14:51 | 34.24825 | -107.71265 | 33103 ft | 537 kts | 113° |
| 2026-05-04 14:51 | 34.22436 | -107.62723 | 33126 ft | 537 kts | 113° |
| 2026-05-04 14:52 | 34.20039 | -107.54175 | 33140 ft | 537 kts | 113° |
| 2026-05-04 14:52 | 34.17650 | -107.45687 | 33129 ft | 538 kts | 113° |
| 2026-05-04 14:53 | 34.15240 | -107.37144 | 33142 ft | 538 kts | 113° |
| 2026-05-04 14:53 | 34.12821 | -107.28597 | 33159 ft | 538 kts | 114° |
| 2026-05-04 14:54 | 34.10395 | -107.20053 | 33225 ft | 539 kts | 113° |
| 2026-05-04 14:54 | 34.07974 | -107.11554 | 33269 ft | 539 kts | 114° |
| 2026-05-04 14:55 | 34.05534 | -107.03011 | 33320 ft | 539 kts | 114° |
| 2026-05-04 14:55 | 34.03088 | -106.94471 | 33336 ft | 539 kts | 114° |
| 2026-05-04 14:56 | 34.00636 | -106.85937 | 33345 ft | 539 kts | 114° |
| 2026-05-04 14:56 | 33.98191 | -106.77452 | 33328 ft | 540 kts | 114° |
| 2026-05-04 14:57 | 33.95722 | -106.68911 | 33263 ft | 541 kts | 114° |
| 2026-05-04 14:57 | 33.93242 | -106.60355 | 33212 ft | 541 kts | 114° |
| 2026-05-04 14:58 | 33.90753 | -106.51794 | 33171 ft | 542 kts | 114° |
| 2026-05-04 14:58 | 33.88259 | -106.43241 | 33158 ft | 542 kts | 114° |
| 2026-05-04 14:59 | 33.85769 | -106.34729 | 33163 ft | 543 kts | 114° |
| 2026-05-04 15:00 | 33.81994 | -106.21871 | 33155 ft | 544 kts | 114° |
| 2026-05-04 15:00 | 33.79470 | -106.13303 | 33167 ft | 544 kts | 113° |
| 2026-05-04 15:01 | 33.75670 | -106.00450 | 33171 ft | 544 kts | 113° |
| 2026-05-04 15:01 | 33.73147 | -105.91952 | 33159 ft | 544 kts | 113° |
| 2026-05-04 15:02 | 33.70602 | -105.83400 | 33169 ft | 544 kts | 113° |
| 2026-05-04 15:02 | 33.68051 | -105.74857 | 33227 ft | 544 kts | 113° |
| 2026-05-04 15:03 | 33.65497 | -105.66323 | 33255 ft | 541 kts | 113° |
| 2026-05-04 15:03 | 33.62972 | -105.57909 | 33302 ft | 537 kts | 113° |
| 2026-05-04 15:04 | 33.60438 | -105.49493 | 33326 ft | 536 kts | 113° |
| 2026-05-04 15:04 | 33.57903 | -105.41103 | 33312 ft | 535 kts | 113° |
| 2026-05-04 15:05 | 33.55365 | -105.32722 | 33264 ft | 534 kts | 113° |
| 2026-05-04 15:05 | 33.52823 | -105.24348 | 33208 ft | 534 kts | 113° |
| 2026-05-04 15:06 | 33.50298 | -105.16055 | 33154 ft | 534 kts | 113° |
| 2026-05-04 15:07 | 33.46464 | -105.03515 | 33086 ft | 535 kts | 113° |
| 2026-05-04 15:07 | 33.43896 | -104.95138 | 33077 ft | 537 kts | 113° |
| 2026-05-04 15:08 | 33.41333 | -104.86801 | 33103 ft | 538 kts | 113° |
| 2026-05-04 15:08 | 33.38740 | -104.78387 | 33149 ft | 539 kts | 113° |
| 2026-05-04 15:09 | 33.36136 | -104.69959 | 33190 ft | 541 kts | 113° |
| 2026-05-04 15:09 | 33.33370 | -104.61598 | 33219 ft | 539 kts | 121° |
| 2026-05-04 15:10 | 33.27313 | -104.50444 | 33221 ft | 533 kts | 130° |
| 2026-05-04 15:11 | 33.21053 | -104.39508 | 33190 ft | 534 kts | 129° |
| 2026-05-04 15:11 | 33.16913 | -104.32136 | 33147 ft | 535 kts | 129° |
| 2026-05-04 15:12 | 33.12772 | -104.24753 | 33109 ft | 535 kts | 129° |
| 2026-05-04 15:12 | 33.08653 | -104.17435 | 33095 ft | 535 kts | 129° |
| 2026-05-04 15:13 | 33.04498 | -104.10076 | 33090 ft | 535 kts | 129° |
| 2026-05-04 15:13 | 33.00345 | -104.02733 | 33092 ft | 534 kts | 129° |
| 2026-05-04 15:14 | 32.96190 | -103.95399 | 33105 ft | 534 kts | 129° |
| 2026-05-04 15:14 | 32.92199 | -103.87934 | 33115 ft | 535 kts | 125° |
| 2026-05-04 15:15 | 32.88476 | -103.80336 | 33124 ft | 535 kts | 124° |
| 2026-05-04 15:15 | 32.84740 | -103.72678 | 33123 ft | 534 kts | 124° |
| 2026-05-04 15:16 | 32.79080 | -103.61285 | 33129 ft | 533 kts | 125° |
| 2026-05-04 15:17 | 32.73424 | -103.49997 | 33182 ft | 532 kts | 125° |
| 2026-05-04 15:17 | 32.67742 | -103.38677 | 33224 ft | 532 kts | 124° |
| 2026-05-04 15:18 | 32.63950 | -103.31140 | 33253 ft | 532 kts | 124° |
| 2026-05-04 15:19 | 32.58271 | -103.19879 | 33246 ft | 533 kts | 124° |
| 2026-05-04 15:19 | 32.52552 | -103.08573 | 33209 ft | 534 kts | 124° |
| 2026-05-04 15:20 | 32.48724 | -103.01022 | 33179 ft | 534 kts | 124° |
| 2026-05-04 15:20 | 32.44625 | -102.93718 | 33149 ft | 532 kts | 130° |
| 2026-05-04 15:21 | 32.40240 | -102.86669 | 33151 ft | 532 kts | 131° |
| 2026-05-04 15:22 | 32.33668 | -102.76150 | 33128 ft | 533 kts | 130° |
| 2026-05-04 15:22 | 32.27118 | -102.65518 | 33120 ft | 533 kts | 130° |
| 2026-05-04 15:23 | 32.22760 | -102.58439 | 33131 ft | 533 kts | 130° |
| 2026-05-04 15:23 | 32.18396 | -102.51371 | 33156 ft | 532 kts | 130° |
| 2026-05-04 15:24 | 32.09695 | -102.37331 | 33207 ft | 531 kts | 130° |
| 2026-05-04 15:25 | 32.05329 | -102.30305 | 33211 ft | 531 kts | 130° |
| 2026-05-04 15:26 | 31.98785 | -102.19798 | 33235 ft | 530 kts | 130° |
| 2026-05-04 15:26 | 31.92264 | -102.09357 | 33232 ft | 530 kts | 130° |
| 2026-05-04 15:27 | 31.85713 | -101.98894 | 33187 ft | 529 kts | 130° |
| 2026-05-04 15:28 | 31.79151 | -101.88446 | 33150 ft | 529 kts | 130° |
| 2026-05-04 15:29 | 31.72608 | -101.78054 | 33132 ft | 530 kts | 130° |
| 2026-05-04 15:30 | 31.57257 | -101.53781 | 33143 ft | 530 kts | 130° |
| 2026-05-04 15:31 | 31.50644 | -101.43373 | 33152 ft | 531 kts | 130° |
| 2026-05-04 15:32 | 31.39598 | -101.26048 | 33166 ft | 531 kts | 131° |
| 2026-05-04 15:34 | 31.28549 | -101.08794 | 33167 ft | 532 kts | 131° |
| 2026-05-04 15:34 | 31.21882 | -100.98419 | 33172 ft | 532 kts | 131° |
| 2026-05-04 15:35 | 31.15239 | -100.88107 | 33176 ft | 532 kts | 131° |
| 2026-05-04 15:36 | 31.09101 | -100.77280 | 33192 ft | 535 kts | 123° |
| 2026-05-04 15:36 | 31.05372 | -100.69770 | 33189 ft | 535 kts | 122° |
| 2026-05-04 15:37 | 31.01610 | -100.62283 | 33186 ft | 535 kts | 123° |
| 2026-05-04 15:37 | 30.97823 | -100.54890 | 33199 ft | 534 kts | 123° |
| 2026-05-04 15:38 | 30.93992 | -100.47468 | 33194 ft | 534 kts | 123° |
| 2026-05-04 15:38 | 30.90161 | -100.40054 | 33185 ft | 534 kts | 123° |
| 2026-05-04 15:39 | 30.86328 | -100.32643 | 33189 ft | 534 kts | 123° |
| 2026-05-04 15:40 | 30.80599 | -100.21585 | 33190 ft | 534 kts | 123° |
| 2026-05-04 15:40 | 30.76758 | -100.14191 | 33193 ft | 534 kts | 123° |
| 2026-05-04 15:41 | 30.72914 | -100.06803 | 33198 ft | 534 kts | 123° |
| 2026-05-04 15:41 | 30.69066 | -99.99422 | 33217 ft | 534 kts | 123° |
| 2026-05-04 15:42 | 30.65241 | -99.92097 | 33243 ft | 534 kts | 123° |
| 2026-05-04 15:42 | 30.61392 | -99.84739 | 33269 ft | 533 kts | 123° |
| 2026-05-04 15:43 | 30.57196 | -99.77693 | 33291 ft | 529 kts | 132° |
| 2026-05-04 15:43 | 30.52554 | -99.71080 | 33277 ft | 527 kts | 133° |
| 2026-05-04 15:44 | 30.47901 | -99.64512 | 33279 ft | 527 kts | 133° |
| 2026-05-04 15:44 | 30.43316 | -99.57966 | 33250 ft | 527 kts | 132° |
| 2026-05-04 15:45 | 30.38719 | -99.51362 | 33228 ft | 526 kts | 132° |
| 2026-05-04 15:45 | 30.34123 | -99.44762 | 33217 ft | 526 kts | 132° |
| 2026-05-04 15:46 | 30.29527 | -99.38180 | 33214 ft | 525 kts | 132° |
| 2026-05-04 15:46 | 30.24960 | -99.31655 | 33216 ft | 525 kts | 132° |
| 2026-05-04 15:47 | 30.20357 | -99.25088 | 33243 ft | 525 kts | 132° |
| 2026-05-04 15:47 | 30.15756 | -99.18535 | 33266 ft | 525 kts | 132° |
| 2026-05-04 15:48 | 30.11154 | -99.11986 | 33284 ft | 525 kts | 132° |
| 2026-05-04 15:48 | 30.04271 | -99.02224 | 33297 ft | 525 kts | 132° |
| 2026-05-04 15:49 | 29.99658 | -98.95693 | 33294 ft | 525 kts | 132° |
| 2026-05-04 15:49 | 29.95045 | -98.89170 | 33282 ft | 525 kts | 132° |
| 2026-05-04 15:50 | 29.90432 | -98.82658 | 33267 ft | 525 kts | 132° |
| 2026-05-04 15:50 | 29.85844 | -98.76191 | 33260 ft | 525 kts | 132° |
| 2026-05-04 15:51 | 29.81219 | -98.69684 | 33256 ft | 525 kts | 132° |
| 2026-05-04 15:51 | 29.76591 | -98.63181 | 33258 ft | 525 kts | 132° |
| 2026-05-04 15:52 | 29.71958 | -98.56681 | 33283 ft | 525 kts | 132° |
| 2026-05-04 15:52 | 29.67429 | -98.50177 | 33276 ft | 526 kts | 124° |
| 2026-05-04 15:53 | 29.65676 | -98.46491 | 33296 ft | 525 kts | 111° |
| 2026-05-04 15:53 | 29.64478 | -98.42534 | 33295 ft | 522 kts | 101° |
| 2026-05-04 15:53 | 29.63869 | -98.38447 | 33283 ft | 516 kts | 89° |
| 2026-05-04 15:53 | 29.63685 | -98.34343 | 33298 ft | 514 kts | 87° |
| 2026-05-04 15:54 | 29.63435 | -98.26126 | 33288 ft | 514 kts | 87° |
| 2026-05-04 15:54 | 29.63145 | -98.17900 | 33285 ft | 515 kts | 88° |
| 2026-05-04 15:55 | 29.62792 | -98.09723 | 33285 ft | 516 kts | 88° |
| 2026-05-04 15:55 | 29.62407 | -98.01475 | 33270 ft | 517 kts | 88° |
| 2026-05-04 15:56 | 29.62016 | -97.93228 | 33256 ft | 517 kts | 88° |
| 2026-05-04 15:56 | 29.61624 | -97.84964 | 33255 ft | 518 kts | 88° |
| 2026-05-04 15:57 | 29.61296 | -97.78096 | 33256 ft | 518 kts | 88° |
| 2026-05-04 15:57 | 29.60831 | -97.68494 | 33253 ft | 518 kts | 88° |
| 2026-05-04 15:58 | 29.60424 | -97.60216 | 33256 ft | 519 kts | 88° |
| 2026-05-04 15:58 | 29.60013 | -97.51950 | 33249 ft | 518 kts | 88° |
| 2026-05-04 15:59 | 29.59667 | -97.45075 | 33252 ft | 518 kts | 88° |
| 2026-05-04 15:59 | 29.59178 | -97.35475 | 33264 ft | 518 kts | 88° |
| 2026-05-04 16:00 | 29.58751 | -97.27212 | 33260 ft | 518 kts | 88° |
| 2026-05-04 16:00 | 29.58394 | -97.20362 | 33265 ft | 517 kts | 88° |
| 2026-05-04 16:01 | 29.57959 | -97.12119 | 33265 ft | 516 kts | 88° |
| 2026-05-04 16:01 | 29.57519 | -97.03891 | 33271 ft | 516 kts | 88° |
| 2026-05-04 16:02 | 29.57075 | -96.95670 | 33280 ft | 515 kts | 89° |
| 2026-05-04 16:03 | 29.56405 | -96.83420 | 33280 ft | 515 kts | 89° |
| 2026-05-04 16:03 | 29.55949 | -96.75222 | 33264 ft | 514 kts | 89° |
| 2026-05-04 16:04 | 29.55490 | -96.67030 | 33263 ft | 514 kts | 89° |
| 2026-05-04 16:04 | 29.54497 | -96.54773 | 33272 ft | 517 kts | 97° |
| 2026-05-04 16:05 | 29.53096 | -96.46724 | 33288 ft | 518 kts | 98° |
| 2026-05-04 16:06 | 29.50894 | -96.34583 | 33307 ft | 518 kts | 98° |
| 2026-05-04 16:07 | 29.48069 | -96.18441 | 33292 ft | 517 kts | 97° |
| 2026-05-04 16:08 | 29.45236 | -96.02265 | 33299 ft | 517 kts | 97° |
| 2026-05-04 16:09 | 29.41663 | -95.82071 | 33308 ft | 517 kts | 98° |
| 2026-05-04 16:10 | 29.38792 | -95.65982 | 33327 ft | 517 kts | 98° |
| 2026-05-04 16:11 | 29.35894 | -95.49857 | 33323 ft | 516 kts | 98° |
| 2026-05-04 16:12 | 29.31520 | -95.25737 | 33327 ft | 516 kts | 98° |
| 2026-05-04 16:13 | 29.28581 | -95.09679 | 33331 ft | 517 kts | 98° |
| 2026-05-04 16:14 | 29.25613 | -94.93571 | 33324 ft | 517 kts | 98° |
| 2026-05-04 16:16 | 29.21880 | -94.73476 | 33323 ft | 518 kts | 99° |
| 2026-05-04 16:17 | 29.18103 | -94.53321 | 33331 ft | 518 kts | 99° |
| 2026-05-04 16:18 | 29.15069 | -94.37252 | 33329 ft | 519 kts | 99° |
| 2026-05-04 16:19 | 29.11235 | -94.17107 | 33345 ft | 519 kts | 99° |
| 2026-05-04 16:20 | 29.07381 | -93.97026 | 33341 ft | 518 kts | 99° |
| 2026-05-04 16:22 | 29.03787 | -93.76909 | 33295 ft | 509 kts | 88° |
| 2026-05-04 16:23 | 29.04951 | -93.53055 | 33355 ft | 506 kts | 79° |
| 2026-05-04 16:25 | 29.06127 | -93.28878 | 33357 ft | 511 kts | 79° |
| 2026-05-04 16:26 | 29.07439 | -93.00588 | 33357 ft | 508 kts | 79° |
| 2026-05-04 16:28 | 29.08336 | -92.80522 | 33361 ft | 504 kts | 79° |
| 2026-05-04 16:29 | 29.09534 | -92.52672 | 33362 ft | 502 kts | 79° |
| 2026-05-04 16:31 | 29.10356 | -92.32719 | 33366 ft | 503 kts | 79° |
| 2026-05-04 16:32 | 29.11304 | -92.08738 | 33369 ft | 505 kts | 79° |
| 2026-05-04 16:33 | 29.11913 | -91.92717 | 33368 ft | 506 kts | 79° |
| 2026-05-04 16:34 | 29.12358 | -91.80656 | 33367 ft | 506 kts | 79° |
| 2026-05-04 16:35 | 29.13214 | -91.56627 | 33369 ft | 504 kts | 79° |
| 2026-05-04 16:36 | 29.13626 | -91.44615 | 33376 ft | 504 kts | 79° |
| 2026-05-04 16:37 | 29.14028 | -91.32613 | 33372 ft | 503 kts | 79° |
| 2026-05-04 16:38 | 29.14543 | -91.16681 | 33370 ft | 503 kts | 79° |
| 2026-05-04 16:39 | 29.15163 | -90.96710 | 33368 ft | 502 kts | 79° |
| 2026-05-04 16:40 | 29.15638 | -90.80737 | 33373 ft | 502 kts | 79° |
| 2026-05-04 16:41 | 29.16203 | -90.60817 | 33375 ft | 502 kts | 79° |
| 2026-05-04 16:43 | 29.16739 | -90.40860 | 33378 ft | 502 kts | 79° |
| 2026-05-04 16:43 | 29.17045 | -90.28948 | 33381 ft | 501 kts | 80° |
| 2026-05-04 16:45 | 29.15700 | -90.05077 | 33366 ft | 522 kts | 108° |
| 2026-05-04 16:46 | 29.08416 | -89.86094 | 33369 ft | 520 kts | 110° |
| 2026-05-04 16:47 | 29.02725 | -89.71003 | 33370 ft | 517 kts | 110° |
| 2026-05-04 16:48 | 28.97055 | -89.55949 | 33369 ft | 515 kts | 110° |
| 2026-05-04 16:49 | 28.91379 | -89.40967 | 33371 ft | 513 kts | 110° |
| 2026-05-04 16:50 | 28.85720 | -89.26091 | 33371 ft | 512 kts | 110° |
| 2026-05-04 16:51 | 28.81460 | -89.14927 | 33369 ft | 511 kts | 111° |
| 2026-05-04 16:52 | 28.75791 | -89.00127 | 33370 ft | 510 kts | 111° |
| 2026-05-04 16:53 | 28.71524 | -88.89022 | 33369 ft | 510 kts | 111° |
| 2026-05-04 16:54 | 28.65851 | -88.74311 | 33369 ft | 508 kts | 112° |
| 2026-05-04 16:55 | 28.57312 | -88.52276 | 33367 ft | 506 kts | 112° |
| 2026-05-04 16:56 | 28.50220 | -88.34069 | 33363 ft | 504 kts | 113° |
| 2026-05-04 16:57 | 28.45955 | -88.23161 | 33361 ft | 503 kts | 113° |
| 2026-05-04 16:58 | 28.40291 | -88.08718 | 33361 ft | 501 kts | 113° |
| 2026-05-04 17:00 | 28.33270 | -87.86454 | 33361 ft | 499 kts | 106° |
| 2026-05-04 17:01 | 28.27923 | -87.67786 | 33360 ft | 499 kts | 107° |
| 2026-05-04 17:02 | 28.23572 | -87.52848 | 33356 ft | 499 kts | 108° |
| 2026-05-04 17:03 | 28.20318 | -87.41706 | 33358 ft | 498 kts | 108° |
| 2026-05-04 17:03 | 28.17045 | -87.30532 | 33355 ft | 498 kts | 108° |
| 2026-05-04 17:04 | 28.12666 | -87.15649 | 33351 ft | 497 kts | 108° |
| 2026-05-04 17:05 | 28.08293 | -87.00845 | 33354 ft | 497 kts | 109° |
| 2026-05-04 17:06 | 28.04989 | -86.89706 | 33349 ft | 498 kts | 109° |
| 2026-05-04 17:07 | 28.02051 | -86.79827 | 33344 ft | 498 kts | 109° |
| 2026-05-04 17:07 | 27.99500 | -86.71191 | 33349 ft | 498 kts | 109° |
| 2026-05-04 17:08 | 27.96282 | -86.60021 | 33345 ft | 498 kts | 109° |
| 2026-05-04 17:09 | 27.94130 | -86.52576 | 33346 ft | 498 kts | 109° |
| 2026-05-04 17:09 | 27.91983 | -86.45185 | 33347 ft | 498 kts | 109° |
| 2026-05-04 17:10 | 27.86561 | -86.26612 | 33343 ft | 497 kts | 109° |
| 2026-05-04 17:11 | 27.84401 | -86.19240 | 33345 ft | 497 kts | 109° |
| 2026-05-04 17:12 | 27.81136 | -86.08129 | 33340 ft | 497 kts | 110° |
| 2026-05-04 17:13 | 27.75680 | -85.89642 | 33335 ft | 496 kts | 110° |
| 2026-05-04 17:14 | 27.71317 | -85.74931 | 33332 ft | 496 kts | 110° |
| 2026-05-04 17:15 | 27.68025 | -85.63875 | 33329 ft | 496 kts | 110° |
| 2026-05-04 17:16 | 27.63637 | -85.49190 | 33328 ft | 495 kts | 111° |
| 2026-05-04 17:17 | 27.59243 | -85.34478 | 33323 ft | 496 kts | 108° |
| 2026-05-04 17:18 | 27.56579 | -85.19202 | 33324 ft | 497 kts | 102° |
| 2026-05-04 17:19 | 27.52588 | -85.04442 | 33325 ft | 494 kts | 112° |
| 2026-05-04 17:20 | 27.48049 | -84.89837 | 33324 ft | 494 kts | 111° |
| 2026-05-04 17:20 | 27.44733 | -84.78905 | 33328 ft | 494 kts | 111° |
| 2026-05-04 17:21 | 27.40284 | -84.64267 | 33327 ft | 494 kts | 111° |
| 2026-05-04 17:22 | 27.38052 | -84.56956 | 33329 ft | 494 kts | 111° |
| 2026-05-04 17:23 | 27.33590 | -84.42391 | 33327 ft | 494 kts | 111° |
| 2026-05-04 17:24 | 27.30224 | -84.31441 | 33324 ft | 494 kts | 111° |
| 2026-05-04 17:25 | 27.25726 | -84.16864 | 33329 ft | 493 kts | 111° |
| 2026-05-04 17:26 | 27.21230 | -84.02352 | 33324 ft | 493 kts | 112° |
| 2026-05-04 17:27 | 27.15590 | -83.84233 | 33329 ft | 493 kts | 112° |
| 2026-05-04 17:28 | 27.11052 | -83.69722 | 33323 ft | 492 kts | 112° |
| 2026-05-04 17:29 | 27.04224 | -83.47996 | 33322 ft | 492 kts | 112° |
| 2026-05-04 17:31 | 26.98530 | -83.29980 | 33322 ft | 491 kts | 112° |
| 2026-05-04 17:32 | 26.92817 | -83.11997 | 33316 ft | 491 kts | 112° |
| 2026-05-04 17:33 | 26.88224 | -82.97601 | 33315 ft | 490 kts | 112° |
| 2026-05-04 17:34 | 26.84871 | -82.87115 | 33312 ft | 469 kts | 112° |
| 2026-05-04 17:34 | 26.83767 | -82.83678 | 33314 ft | 470 kts | 112° |
| 2026-05-04 17:35 | 26.80472 | -82.73433 | 32304 ft | 463 kts | 112° |
| 2026-05-04 17:35 | 26.78299 | -82.66684 | 31577 ft | 458 kts | 112° |
| 2026-05-04 17:35 | 26.77221 | -82.63343 | 31214 ft | 456 kts | 112° |
| 2026-05-04 17:36 | 26.76148 | -82.60020 | 30850 ft | 454 kts | 112° |
| 2026-05-04 17:36 | 26.75075 | -82.56704 | 30489 ft | 452 kts | 112° |
| 2026-05-04 17:36 | 26.74007 | -82.53403 | 30093 ft | 451 kts | 112° |
| 2026-05-04 17:36 | 26.72957 | -82.50160 | 29688 ft | 449 kts | 112° |
| 2026-05-04 17:37 | 26.71897 | -82.46889 | 29288 ft | 446 kts | 112° |
| 2026-05-04 17:37 | 26.70844 | -82.43639 | 28882 ft | 443 kts | 112° |
| 2026-05-04 17:37 | 26.69795 | -82.40409 | 28505 ft | 440 kts | 112° |
| 2026-05-04 17:37 | 26.68754 | -82.37204 | 28125 ft | 437 kts | 112° |
| 2026-05-04 17:38 | 26.67718 | -82.34020 | 27753 ft | 434 kts | 112° |
| 2026-05-04 17:38 | 26.66688 | -82.30854 | 27380 ft | 432 kts | 112° |
| 2026-05-04 17:38 | 26.65667 | -82.27720 | 27018 ft | 429 kts | 112° |
| 2026-05-04 17:38 | 26.64661 | -82.24636 | 26652 ft | 427 kts | 112° |
| 2026-05-04 17:39 | 26.62639 | -82.18441 | 25924 ft | 422 kts | 112° |
| 2026-05-04 17:39 | 26.61633 | -82.15363 | 25567 ft | 420 kts | 112° |
| 2026-05-04 17:39 | 26.60652 | -82.12366 | 25217 ft | 418 kts | 112° |
| 2026-05-04 17:40 | 26.59655 | -82.09322 | 24849 ft | 416 kts | 112° |
| 2026-05-04 17:40 | 26.58663 | -82.06293 | 24496 ft | 415 kts | 112° |
| 2026-05-04 17:40 | 26.57672 | -82.03273 | 24116 ft | 413 kts | 112° |
| 2026-05-04 17:40 | 26.56685 | -82.00265 | 23753 ft | 412 kts | 112° |
| 2026-05-04 17:41 | 26.55712 | -81.97304 | 23351 ft | 411 kts | 112° |
| 2026-05-04 17:41 | 26.54732 | -81.94322 | 22954 ft | 408 kts | 112° |
| 2026-05-04 17:41 | 26.53753 | -81.91346 | 22579 ft | 405 kts | 113° |
| 2026-05-04 17:41 | 26.52786 | -81.88406 | 22215 ft | 402 kts | 113° |
| 2026-05-04 17:42 | 26.51823 | -81.85485 | 21862 ft | 400 kts | 113° |
| 2026-05-04 17:42 | 26.50868 | -81.82588 | 21516 ft | 397 kts | 113° |
| 2026-05-04 17:42 | 26.49916 | -81.79704 | 21167 ft | 394 kts | 113° |
| 2026-05-04 17:42 | 26.48984 | -81.76880 | 20823 ft | 392 kts | 113° |
| 2026-05-04 17:43 | 26.48044 | -81.74037 | 20480 ft | 389 kts | 113° |
| 2026-05-04 17:43 | 26.47109 | -81.71212 | 20140 ft | 387 kts | 113° |
| 2026-05-04 17:43 | 26.46178 | -81.68401 | 19792 ft | 385 kts | 113° |
| 2026-05-04 17:43 | 26.45251 | -81.65603 | 19450 ft | 383 kts | 113° |
| 2026-05-04 17:44 | 26.44328 | -81.62818 | 19097 ft | 382 kts | 113° |
| 2026-05-04 17:44 | 26.43407 | -81.60043 | 18755 ft | 380 kts | 113° |
| 2026-05-04 17:44 | 26.42489 | -81.57278 | 18394 ft | 379 kts | 114° |
| 2026-05-04 17:44 | 26.41575 | -81.54526 | 18017 ft | 378 kts | 113° |
| 2026-05-04 17:45 | 26.40677 | -81.51826 | 17652 ft | 375 kts | 113° |
| 2026-05-04 17:45 | 26.39771 | -81.49104 | 17303 ft | 373 kts | 113° |
| 2026-05-04 17:45 | 26.38873 | -81.46404 | 16956 ft | 370 kts | 113° |
| 2026-05-04 17:45 | 26.37979 | -81.43722 | 16616 ft | 368 kts | 113° |
| 2026-05-04 17:46 | 26.37090 | -81.41057 | 16283 ft | 365 kts | 113° |
| 2026-05-04 17:46 | 26.36206 | -81.38406 | 15948 ft | 363 kts | 113° |
| 2026-05-04 17:46 | 26.35328 | -81.35779 | 15615 ft | 361 kts | 113° |
| 2026-05-04 17:46 | 26.34453 | -81.33160 | 15286 ft | 359 kts | 113° |
| 2026-05-04 17:47 | 26.33584 | -81.30560 | 14966 ft | 357 kts | 113° |
| 2026-05-04 17:47 | 26.32730 | -81.28008 | 14648 ft | 356 kts | 113° |
| 2026-05-04 17:47 | 26.31868 | -81.25433 | 14315 ft | 354 kts | 113° |
| 2026-05-04 17:47 | 26.31008 | -81.22864 | 13997 ft | 353 kts | 113° |
| 2026-05-04 17:48 | 26.30150 | -81.20307 | 13641 ft | 352 kts | 113° |
| 2026-05-04 17:48 | 26.29299 | -81.17778 | 13277 ft | 344 kts | 114° |
| 2026-05-04 17:48 | 26.28180 | -81.15497 | 12967 ft | 327 kts | 133° |
| 2026-05-04 17:48 | 26.26745 | -81.13599 | 12696 ft | 316 kts | 135° |
| 2026-05-04 17:49 | 26.25320 | -81.11778 | 12382 ft | 308 kts | 135° |
| 2026-05-04 17:49 | 26.24232 | -81.10383 | 12152 ft | 302 kts | 135° |
| 2026-05-04 17:49 | 26.22877 | -81.08634 | 11862 ft | 294 kts | 135° |
| 2026-05-04 17:50 | 26.22351 | -81.07951 | 11750 ft | 292 kts | 135° |
| 2026-05-04 17:50 | 26.21039 | -81.06239 | 11411 ft | 293 kts | 134° |
| 2026-05-04 17:50 | 26.19719 | -81.04508 | 11226 ft | 295 kts | 134° |
| 2026-05-04 17:50 | 26.18373 | -81.02743 | 10927 ft | 302 kts | 134° |
| 2026-05-04 17:51 | 26.16998 | -81.00942 | 10646 ft | 307 kts | 134° |
| 2026-05-04 17:51 | 26.15647 | -80.99170 | 10411 ft | 303 kts | 133° |
| 2026-05-04 17:51 | 26.14575 | -80.97156 | 10148 ft | 306 kts | 108° |
| 2026-05-04 17:51 | 26.14125 | -80.94833 | 9817 ft | 308 kts | 102° |
| 2026-05-04 17:52 | 26.13754 | -80.92478 | 9392 ft | 310 kts | 101° |
| 2026-05-04 17:52 | 26.13385 | -80.90104 | 9013 ft | 311 kts | 101° |
| 2026-05-04 17:52 | 26.13008 | -80.87731 | 8620 ft | 312 kts | 101° |
| 2026-05-04 17:52 | 26.12620 | -80.85350 | 8250 ft | 313 kts | 101° |
| 2026-05-04 17:53 | 26.12225 | -80.82964 | 7857 ft | 314 kts | 101° |
| 2026-05-04 17:53 | 26.11826 | -80.80570 | 7480 ft | 315 kts | 101° |
| 2026-05-04 17:53 | 26.11444 | -80.78184 | 7225 ft | 310 kts | 100° |
| 2026-05-04 17:53 | 26.11118 | -80.75869 | 7042 ft | 304 kts | 99° |
| 2026-05-04 17:54 | 26.10805 | -80.73561 | 6666 ft | 299 kts | 99° |
| 2026-05-04 17:54 | 26.10501 | -80.71315 | 6429 ft | 288 kts | 99° |
| 2026-05-04 17:54 | 26.10208 | -80.69163 | 6231 ft | 275 kts | 98° |
| 2026-05-04 17:54 | 26.09924 | -80.67098 | 6074 ft | 265 kts | 98° |
| 2026-05-04 17:55 | 26.09646 | -80.65081 | 5939 ft | 263 kts | 98° |
| 2026-05-04 17:55 | 26.09367 | -80.63069 | 5786 ft | 265 kts | 98° |
| 2026-05-04 17:55 | 26.09085 | -80.61031 | 5633 ft | 266 kts | 98° |
| 2026-05-04 17:55 | 26.08805 | -80.59023 | 5496 ft | 267 kts | 98° |
| 2026-05-04 17:56 | 26.08519 | -80.56969 | 5347 ft | 269 kts | 97° |
| 2026-05-04 17:56 | 26.08232 | -80.54918 | 5199 ft | 267 kts | 97° |
| 2026-05-04 17:56 | 26.07948 | -80.52885 | 5051 ft | 266 kts | 97° |
| 2026-05-04 17:56 | 26.07768 | -80.50845 | 4838 ft | 266 kts | 89° |
| 2026-05-04 17:57 | 26.07761 | -80.48786 | 4628 ft | 266 kts | 88° |
| 2026-05-04 17:57 | 26.07783 | -80.46739 | 4410 ft | 264 kts | 87° |
| 2026-05-04 17:57 | 26.07800 | -80.44706 | 4181 ft | 261 kts | 87° |
| 2026-05-04 17:57 | 26.07806 | -80.42737 | 3975 ft | 254 kts | 86° |
| 2026-05-04 17:58 | 26.07806 | -80.40809 | 3771 ft | 245 kts | 87° |
| 2026-05-04 17:58 | 26.07801 | -80.38951 | 3563 ft | 235 kts | 87° |
| 2026-05-04 17:58 | 26.07793 | -80.37165 | 3364 ft | 227 kts | 86° |
| 2026-05-04 17:58 | 26.07786 | -80.35443 | 3180 ft | 218 kts | 86° |
| 2026-05-04 17:59 | 26.07778 | -80.33787 | 2986 ft | 211 kts | 86° |
| 2026-05-04 17:59 | 26.07772 | -80.32148 | 2721 ft | 214 kts | 86° |
| 2026-05-04 17:59 | 26.07759 | -80.28758 | 2199 ft | 217 kts | 87° |
| 2026-05-04 18:00 | 26.07749 | -80.27137 | 1978 ft | 199 kts | 86° |
| 2026-05-04 18:00 | 26.07738 | -80.25714 | 1960 ft | 174 kts | 86° |
| 2026-05-04 18:00 | 26.07731 | -80.24421 | 1766 ft | 162 kts | 85° |
| 2026-05-04 18:00 | 26.07726 | -80.23190 | 1379 ft | 153 kts | 84° |
| 2026-05-04 18:01 | 26.07719 | -80.22074 | 1051 ft | 140 kts | 82° |
| 2026-05-04 18:01 | 26.07716 | -80.21015 | 857 ft | 139 kts | 84° |
| 2026-05-04 18:01 | 26.07714 | -80.20416 | 773 ft | 146 kts | 86° |
| 2026-05-04 18:02 | 26.07705 | -80.18032 | 357 ft | 135 kts | 91° |
| 2026-05-04 18:02 | 26.07698 | -80.16979 | 147 ft | 134 kts | 88° |
| 2026-05-04 18:02 | 26.07689 | -80.15978 | 29 ft | 126 kts | 89° |
| 2026-05-04 18:02 | 26.07679 | -80.15000 | 12 ft | 118 kts | 95° |
| 2026-05-04 18:03 | 26.07540 | -80.14397 | 18 ft | 31 kts | 213° |
| 2026-05-04 18:03 | 26.07477 | -80.14442 | 19 ft | 0 kts | 215° |